createdAt,value
2023-07-25T00:01:49.592Z,17.72
2023-07-25T00:04:18.618Z,16.86
2023-07-25T00:06:46.893Z,16.46
2023-07-25T00:09:15.369Z,16.50
2023-07-25T00:11:43.862Z,16.64
2023-07-25T00:14:14.103Z,16.56
2023-07-25T00:16:43.018Z,16.56
2023-07-25T00:19:11.224Z,16.56
2023-07-25T00:21:39.742Z,16.42
2023-07-25T00:24:08.203Z,16.36
2023-07-25T00:26:40.099Z,16.58
2023-07-25T00:29:08.633Z,16.47
2023-07-25T00:31:38.621Z,16.57
2023-07-25T00:34:07.928Z,16.58
2023-07-25T00:36:36.577Z,16.46
2023-07-25T00:39:05.626Z,16.61
2023-07-25T00:41:34.347Z,16.60
2023-07-25T00:44:03.208Z,16.60
2023-07-25T00:46:31.726Z,17.12
2023-07-25T00:49:03.994Z,17.02
2023-07-25T00:51:35.433Z,17.07
2023-07-25T00:54:04.193Z,16.95
2023-07-25T00:56:33.610Z,17.03
2023-07-25T00:59:02.683Z,17.15
2023-07-25T01:01:31.256Z,17.01
2023-07-25T01:04:01.755Z,16.91
2023-07-25T01:06:32.066Z,16.90
2023-07-25T01:09:01.789Z,17.29
2023-07-25T01:11:30.779Z,17.51
2023-07-25T01:13:59.739Z,17.31
2023-07-25T01:16:31.717Z,16.81
2023-07-25T01:19:03.162Z,16.98
2023-07-25T01:21:32.228Z,17.17
2023-07-25T01:24:04.479Z,17.30
2023-07-25T01:26:33.970Z,17.44
2023-07-25T01:29:05.244Z,17.76
2023-07-25T01:31:34.145Z,17.25
2023-07-25T01:34:02.900Z,17.16
2023-07-25T01:36:37.215Z,17.24
2023-07-25T01:39:08.282Z,16.97
2023-07-25T01:41:36.858Z,17.13
2023-07-25T01:44:06.363Z,17.32
2023-07-25T01:46:35.015Z,17.87
2023-07-25T01:49:05.927Z,18.37
2023-07-25T01:51:34.453Z,18.51
2023-07-25T01:54:03.323Z,17.95
2023-07-25T01:56:35.944Z,17.80
2023-07-25T01:59:08.589Z,17.96
2023-07-25T02:01:38.293Z,17.88
2023-07-25T02:04:08.760Z,18.01
2023-07-25T02:06:39.218Z,18.39
2023-07-25T02:09:08.096Z,17.87
2023-07-25T02:11:37.700Z,18.31
2023-07-25T02:14:06.205Z,18.76
2023-07-25T02:16:38.084Z,18.60
2023-07-25T02:19:07.152Z,18.19
2023-07-25T02:21:36.492Z,18.28
2023-07-25T02:24:05.314Z,18.05
2023-07-25T02:26:34.309Z,17.75
2023-07-25T02:29:04.290Z,18.45
2023-07-25T02:31:33.052Z,18.63
2023-07-25T02:34:04.415Z,18.71
2023-07-25T02:36:32.925Z,18.49
2023-07-25T02:39:01.377Z,18.17
2023-07-25T02:41:30.388Z,18.08
2023-07-25T02:43:59.109Z,18.11
2023-07-25T02:46:29.125Z,17.81
2023-07-25T02:48:58.504Z,17.79
2023-07-25T02:51:27.036Z,17.87
2023-07-25T02:53:55.580Z,18.31
2023-07-25T02:56:27.106Z,18.77
2023-07-25T02:58:55.714Z,18.42
2023-07-25T03:01:24.234Z,18.49
2023-07-25T03:03:54.257Z,18.84
2023-07-25T03:06:22.851Z,18.51
2023-07-25T03:08:51.246Z,18.65
2023-07-25T03:11:19.782Z,18.22
2023-07-25T03:13:48.277Z,18.18
2023-07-25T03:16:17.029Z,17.66
2023-07-25T03:18:45.392Z,17.93
2023-07-25T03:21:15.746Z,17.95
2023-07-25T03:23:47.371Z,18.09
2023-07-25T03:26:16.148Z,18.46
2023-07-25T03:28:44.359Z,18.89
2023-07-25T03:31:13.076Z,18.85
2023-07-25T03:33:44.207Z,18.38
2023-07-25T03:36:12.848Z,18.82
2023-07-25T03:38:42.989Z,18.84
2023-07-25T03:41:11.605Z,18.83
2023-07-25T03:43:40.108Z,18.25
2023-07-25T03:46:08.810Z,18.16
2023-07-25T03:48:39.586Z,17.97
2023-07-25T03:51:10.586Z,18.02
2023-07-25T03:53:39.209Z,18.06
2023-07-25T03:56:12.093Z,17.97
2023-07-25T03:58:40.722Z,18.17
2023-07-25T04:01:09.373Z,18.28
2023-07-25T04:03:38.417Z,18.73
2023-07-25T04:06:07.301Z,18.19
2023-07-25T04:08:35.962Z,18.65
2023-07-25T04:11:04.502Z,17.88
2023-07-25T04:13:34.426Z,18.47
2023-07-25T04:16:03.200Z,19.18
2023-07-25T04:18:31.438Z,19.06
2023-07-25T04:21:00.027Z,19.31
2023-07-25T04:23:28.545Z,19.04
2023-07-25T04:25:57.132Z,19.27
2023-07-25T04:28:25.755Z,18.80
2023-07-25T04:30:55.861Z,19.04
2023-07-25T04:33:24.461Z,18.56
2023-07-25T04:35:52.980Z,18.83
2023-07-25T04:38:21.596Z,19.46
2023-07-25T04:40:50.131Z,19.68
2023-07-25T04:43:18.722Z,21.17
2023-07-25T04:45:54.265Z,20.93
2023-07-25T04:48:25.244Z,20.74
2023-07-25T04:50:54.499Z,20.51
2023-07-25T04:53:22.978Z,20.66
2023-07-25T04:55:51.610Z,20.48
2023-07-25T04:58:20.022Z,21.18
2023-07-25T05:00:49.280Z,21.17
2023-07-25T05:03:17.992Z,21.73
2023-07-25T05:05:48.024Z,22.35
2023-07-25T05:08:16.533Z,22.47
2023-07-25T05:10:45.079Z,21.56
2023-07-25T05:13:13.782Z,20.93
2023-07-25T05:15:42.206Z,20.96
2023-07-25T05:18:10.719Z,21.36
2023-07-25T05:20:39.301Z,21.57
2023-07-25T05:23:10.930Z,21.71
2023-07-25T05:25:40.530Z,21.66
2023-07-25T05:28:09.147Z,22.20
2023-07-25T05:30:37.941Z,22.49
2023-07-25T05:33:06.435Z,22.78
2023-07-25T05:35:35.013Z,23.21
2023-07-25T05:38:04.055Z,23.38
2023-07-25T05:40:33.978Z,24.09
2023-07-25T05:43:02.456Z,24.02
2023-07-25T05:45:30.959Z,23.75
2023-07-25T05:47:59.535Z,23.10
2023-07-25T05:50:27.845Z,22.68
2023-07-25T05:52:56.303Z,23.01
2023-07-25T05:55:24.848Z,22.79
2023-07-25T05:57:54.644Z,22.81
2023-07-25T06:00:23.988Z,23.51
2023-07-25T06:02:52.588Z,24.30
2023-07-25T06:05:21.196Z,23.60
2023-07-25T06:07:49.484Z,23.76
2023-07-25T06:10:17.968Z,24.11
2023-07-25T06:12:47.580Z,23.84
2023-07-25T06:15:17.724Z,23.66
2023-07-25T06:17:46.340Z,23.00
2023-07-25T06:20:14.821Z,23.62
2023-07-25T06:22:43.274Z,23.13
2023-07-25T06:25:14.050Z,23.43
2023-07-25T06:27:42.695Z,23.35
2023-07-25T06:30:12.125Z,22.88
2023-07-25T06:32:42.774Z,24.09
2023-07-25T06:35:11.774Z,24.50
2023-07-25T06:37:40.681Z,24.73
2023-07-25T06:40:10.249Z,25.13
2023-07-25T06:42:38.871Z,25.07
2023-07-25T06:45:09.097Z,25.24
2023-07-25T06:47:37.687Z,24.69
2023-07-25T06:50:08.546Z,24.37
2023-07-25T06:52:37.186Z,24.20
2023-07-25T06:55:06.089Z,23.49
2023-07-25T06:57:34.628Z,24.05
2023-07-25T07:00:04.406Z,24.18
2023-07-25T07:02:35.874Z,24.71
2023-07-25T07:05:15.455Z,25.36
2023-07-25T07:07:54.640Z,25.29
2023-07-25T07:10:23.177Z,25.79
2023-07-25T07:12:53.967Z,25.75
2023-07-25T07:15:25.366Z,26.08
2023-07-25T07:17:54.515Z,26.32
2023-07-25T07:20:23.920Z,25.94
2023-07-25T07:22:52.920Z,24.56
2023-07-25T07:25:23.276Z,24.14
2023-07-25T07:27:52.052Z,23.55
2023-07-25T07:30:20.509Z,22.49
2023-07-25T07:32:48.931Z,22.92
2023-07-25T07:35:17.340Z,24.01
2023-07-25T07:37:45.879Z,24.93
2023-07-25T07:40:14.580Z,25.35
2023-07-25T07:42:44.645Z,26.82
2023-07-25T07:45:13.443Z,25.47
2023-07-25T07:47:41.969Z,25.20
2023-07-25T07:50:10.574Z,25.41
2023-07-25T07:52:44.739Z,25.78
2023-07-25T07:55:13.735Z,25.71
2023-07-25T07:57:45.246Z,25.49
2023-07-25T08:00:16.029Z,26.46
2023-07-25T08:02:46.918Z,27.49
2023-07-25T08:05:15.670Z,27.92
2023-07-25T08:07:44.456Z,27.67
2023-07-25T08:10:13.176Z,27.23
2023-07-25T08:12:41.886Z,27.29
2023-07-25T08:15:12.353Z,26.76
2023-07-25T08:17:41.010Z,27.03
2023-07-25T08:20:09.705Z,25.39
2023-07-25T08:22:37.958Z,25.47
2023-07-25T08:25:07.133Z,26.17
2023-07-25T08:27:35.682Z,25.04
2023-07-25T08:30:04.406Z,25.31
2023-07-25T08:32:34.679Z,25.52
2023-07-25T08:35:03.453Z,25.31
2023-07-25T08:37:32.653Z,25.07
2023-07-25T08:40:01.165Z,24.54
2023-07-25T08:42:34.549Z,24.56
2023-07-25T08:45:07.083Z,24.68
2023-07-25T08:47:41.629Z,24.73
2023-07-25T08:50:15.746Z,25.87
2023-07-25T08:52:51.335Z,26.83
2023-07-25T08:55:20.264Z,27.81
2023-07-25T08:57:52.601Z,26.39
2023-07-25T09:00:22.758Z,25.97
2023-07-25T09:02:54.246Z,25.04
2023-07-25T09:05:24.273Z,25.10
2023-07-25T09:07:52.856Z,24.85
2023-07-25T09:10:21.661Z,24.37
2023-07-25T09:12:50.506Z,24.60
2023-07-25T09:15:19.303Z,25.98
2023-07-25T09:17:47.722Z,26.57
2023-07-25T09:20:18.265Z,27.00
2023-07-25T09:22:49.598Z,27.33
2023-07-25T09:25:18.559Z,26.96
2023-07-25T09:27:47.742Z,26.49
2023-07-25T09:30:16.804Z,25.37
2023-07-25T09:32:49.401Z,26.04
2023-07-25T09:35:19.518Z,26.45
2023-07-25T09:37:53.900Z,26.13
2023-07-25T09:40:22.638Z,25.47
2023-07-25T09:42:52.695Z,25.96
2023-07-25T09:45:22.179Z,26.00
2023-07-25T09:47:54.725Z,26.10
2023-07-25T09:50:28.577Z,26.20
2023-07-25T09:52:57.287Z,26.15
2023-07-25T09:55:25.764Z,26.15
2023-07-25T09:57:54.884Z,26.45
2023-07-25T10:00:24.063Z,25.88
2023-07-25T10:02:53.599Z,26.00
2023-07-25T10:05:22.949Z,26.47
2023-07-25T10:07:56.971Z,26.98
2023-07-25T10:10:27.231Z,27.98
2023-07-25T10:12:56.316Z,27.95
2023-07-25T10:15:25.078Z,26.86
2023-07-25T10:17:53.393Z,26.98
2023-07-25T10:20:24.063Z,27.69
2023-07-25T10:22:54.257Z,27.89
2023-07-25T10:25:28.816Z,28.69
2023-07-25T10:28:00.298Z,28.44
2023-07-25T10:30:31.437Z,28.12
2023-07-25T10:33:02.969Z,28.97
2023-07-25T10:35:42.173Z,29.99
2023-07-25T10:38:13.062Z,29.58
2023-07-25T10:40:59.141Z,28.90
2023-07-25T10:43:31.937Z,28.68
2023-07-25T10:46:03.020Z,29.25
2023-07-25T10:48:33.623Z,27.97
2023-07-25T10:51:03.858Z,27.89
2023-07-25T10:53:33.859Z,28.57
2023-07-25T10:56:16.517Z,29.19
2023-07-25T10:59:06.778Z,28.13
2023-07-25T11:01:38.460Z,28.64
2023-07-25T11:04:27.597Z,29.27
2023-07-25T11:06:57.847Z,27.73
2023-07-25T11:09:29.191Z,27.99
2023-07-25T11:11:58.360Z,28.75
2023-07-25T11:14:26.932Z,28.12
2023-07-25T11:16:56.750Z,28.77
2023-07-25T11:19:29.360Z,28.68
2023-07-25T11:21:58.503Z,29.23
2023-07-25T11:24:28.531Z,29.71
2023-07-25T11:26:57.745Z,28.51
2023-07-25T11:29:26.272Z,28.12
2023-07-25T11:31:54.841Z,28.41
2023-07-25T11:34:23.260Z,29.53
2023-07-25T11:36:51.710Z,29.89
2023-07-25T11:39:20.566Z,29.29
2023-07-25T11:41:50.609Z,27.79
2023-07-25T11:44:21.546Z,28.18
2023-07-25T11:46:52.978Z,28.15
2023-07-25T11:49:36.402Z,28.64
2023-07-25T11:52:11.907Z,29.54
2023-07-25T11:54:40.882Z,29.28
2023-07-25T11:57:12.272Z,28.23
2023-07-25T11:59:44.170Z,27.53
2023-07-25T12:02:13.810Z,28.27
2023-07-25T12:04:46.355Z,27.82
2023-07-25T12:07:15.418Z,27.95
2023-07-25T12:09:52.800Z,27.84
2023-07-25T12:12:23.340Z,28.29
2023-07-25T12:14:59.677Z,28.99
2023-07-25T12:17:43.858Z,29.26
2023-07-25T12:20:17.640Z,29.14
2023-07-25T12:22:46.558Z,28.91
2023-07-25T12:25:18.833Z,29.16
2023-07-25T12:27:51.279Z,28.47
2023-07-25T12:30:19.897Z,27.90
2023-07-25T12:32:48.289Z,27.74
2023-07-25T12:35:16.865Z,29.01
2023-07-25T12:37:45.509Z,30.21
2023-07-25T12:40:14.190Z,30.39
2023-07-25T12:42:42.641Z,29.96
2023-07-25T12:45:12.952Z,29.75
2023-07-25T12:47:41.597Z,29.67
2023-07-25T12:50:11.110Z,29.52
2023-07-25T12:52:39.772Z,29.89
2023-07-25T12:55:08.260Z,29.95
2023-07-25T12:57:38.455Z,30.53
2023-07-25T13:00:09.039Z,31.15
2023-07-25T13:02:39.239Z,30.88
2023-07-25T13:05:08.878Z,30.10
2023-07-25T13:07:37.574Z,30.04
2023-07-25T13:10:08.193Z,30.39
2023-07-25T13:12:36.957Z,30.38
2023-07-25T13:15:06.321Z,30.60
2023-07-25T13:17:35.802Z,29.71
2023-07-25T13:20:08.289Z,28.51
2023-07-25T13:22:37.454Z,28.68
2023-07-25T13:25:06.808Z,27.64
2023-07-25T13:27:35.415Z,27.81
2023-07-25T13:30:03.713Z,28.47
2023-07-25T13:32:33.149Z,29.00
2023-07-25T13:35:01.968Z,29.05
2023-07-25T13:37:34.359Z,27.56
2023-07-25T13:40:03.122Z,27.84
2023-07-25T13:42:32.953Z,27.58
2023-07-25T13:45:01.425Z,28.13
2023-07-25T13:47:33.024Z,28.81
2023-07-25T13:50:01.968Z,28.50
2023-07-25T13:52:33.765Z,28.92
2023-07-25T13:55:02.484Z,29.32
2023-07-25T13:57:35.233Z,27.75
2023-07-25T14:00:06.661Z,27.67
2023-07-25T14:02:38.750Z,28.47
2023-07-25T14:05:08.193Z,29.60
2023-07-25T14:07:38.206Z,29.48
2023-07-25T14:10:07.808Z,28.85
2023-07-25T14:12:36.495Z,29.26
2023-07-25T14:15:05.401Z,29.88
2023-07-25T14:17:34.209Z,30.73
2023-07-25T14:20:02.416Z,30.47
2023-07-25T14:22:32.061Z,30.23
2023-07-25T14:25:01.716Z,29.80
2023-07-25T14:27:30.497Z,30.14
2023-07-25T14:29:58.723Z,29.39
2023-07-25T14:32:27.200Z,29.43
2023-07-25T14:34:56.990Z,29.70
2023-07-25T14:37:31.212Z,28.98
2023-07-25T14:40:08.525Z,29.13
2023-07-25T14:42:37.144Z,29.15
2023-07-25T14:45:05.715Z,29.25
2023-07-25T14:47:34.065Z,28.43
2023-07-25T14:50:02.687Z,28.62
2023-07-25T14:52:31.577Z,28.77
2023-07-25T14:55:00.139Z,28.96
2023-07-25T14:57:31.675Z,28.32
2023-07-25T15:00:00.380Z,28.06
2023-07-25T15:02:28.674Z,28.17
2023-07-25T15:04:57.178Z,28.07
2023-07-25T15:07:25.827Z,28.34
2023-07-25T15:09:57.661Z,28.79
2023-07-25T15:12:29.585Z,29.19
2023-07-25T15:14:58.817Z,28.89
2023-07-25T15:17:28.384Z,28.03
2023-07-25T15:20:00.040Z,28.42
2023-07-25T15:22:29.101Z,28.28
2023-07-25T15:24:58.516Z,28.16
2023-07-25T15:27:27.156Z,27.90
2023-07-25T15:29:56.974Z,27.58
2023-07-25T15:32:25.607Z,27.50
2023-07-25T15:34:53.839Z,27.34
2023-07-25T15:37:22.542Z,27.21
2023-07-25T15:39:51.013Z,27.44
2023-07-25T15:42:21.287Z,27.42
2023-07-25T15:44:50.004Z,27.22
2023-07-25T15:47:19.649Z,26.96
2023-07-25T15:49:49.773Z,26.61
2023-07-25T15:52:18.472Z,27.00
2023-07-25T15:54:46.723Z,26.68
2023-07-25T15:57:18.886Z,26.91
2023-07-25T15:59:47.971Z,26.42
2023-07-25T16:02:21.618Z,26.39
2023-07-25T16:04:50.354Z,26.63
2023-07-25T16:07:20.710Z,26.18
2023-07-25T16:09:49.338Z,25.90
2023-07-25T16:12:18.124Z,26.46
2023-07-25T16:14:46.732Z,26.27
2023-07-25T16:17:14.958Z,26.07
2023-07-25T16:19:44.983Z,26.07
2023-07-25T16:22:13.465Z,25.86
2023-07-25T16:24:42.065Z,25.96
2023-07-25T16:27:10.280Z,26.13
2023-07-25T16:29:39.309Z,26.24
2023-07-25T16:32:08.711Z,26.26
2023-07-25T16:34:37.169Z,26.29
2023-07-25T16:37:07.729Z,25.90
2023-07-25T16:39:36.362Z,26.03
2023-07-25T16:42:13.372Z,25.92
2023-07-25T16:44:42.117Z,25.86
2023-07-25T16:47:11.802Z,25.77
2023-07-25T16:49:39.942Z,26.18
2023-07-25T16:52:11.056Z,25.98
2023-07-25T16:54:42.647Z,25.90
2023-07-25T16:57:14.533Z,26.03
2023-07-25T16:59:46.223Z,26.01
2023-07-25T17:02:15.082Z,25.81
2023-07-25T17:04:43.783Z,25.58
2023-07-25T17:07:17.321Z,25.41
2023-07-25T17:09:46.922Z,25.82
2023-07-25T17:12:15.281Z,25.65
2023-07-25T17:14:43.857Z,26.11
2023-07-25T17:17:13.791Z,25.64
2023-07-25T17:19:42.579Z,25.44
2023-07-25T17:22:16.948Z,25.17
2023-07-25T17:24:58.017Z,25.70
2023-07-25T17:27:33.824Z,25.52
2023-07-25T17:30:02.474Z,25.94
2023-07-25T17:32:32.594Z,25.67
2023-07-25T17:35:05.861Z,25.37
2023-07-25T17:37:41.630Z,25.34
2023-07-25T17:40:12.447Z,25.37
2023-07-25T17:42:41.082Z,25.20
2023-07-25T17:45:24.853Z,25.67
2023-07-25T17:47:55.578Z,25.24
2023-07-25T17:50:24.185Z,25.06
2023-07-25T17:52:59.771Z,25.14
2023-07-25T17:55:43.443Z,25.26
2023-07-25T17:58:13.713Z,25.35
2023-07-25T18:01:18.129Z,25.00
2023-07-25T18:03:47.122Z,24.74
2023-07-25T18:06:15.828Z,24.87
2023-07-25T18:08:44.093Z,24.93
2023-07-25T18:11:15.462Z,25.20
2023-07-25T18:13:47.238Z,25.27
2023-07-25T18:16:28.160Z,24.47
2023-07-25T18:18:56.753Z,24.65
2023-07-25T18:21:26.613Z,24.78
2023-07-25T18:23:55.475Z,24.68
2023-07-25T18:26:25.572Z,24.24
2023-07-25T18:28:54.195Z,24.24
2023-07-25T18:31:25.697Z,24.00
2023-07-25T18:33:54.583Z,24.57
2023-07-25T18:36:24.079Z,24.79
2023-07-25T18:38:52.759Z,24.16
2023-07-25T18:41:21.331Z,24.32
2023-07-25T18:43:55.399Z,24.35
2023-07-25T18:46:24.115Z,24.23
2023-07-25T18:48:52.733Z,24.59
2023-07-25T18:51:21.066Z,24.41
2023-07-25T18:53:49.889Z,24.45
2023-07-25T18:56:18.434Z,24.75
2023-07-25T18:58:51.355Z,24.66
2023-07-25T19:01:20.097Z,24.45
2023-07-25T19:03:48.802Z,24.49
2023-07-25T19:06:17.308Z,24.50
2023-07-25T19:08:49.059Z,24.15
2023-07-25T19:11:19.210Z,24.22
2023-07-25T19:13:47.819Z,23.90
2023-07-25T19:16:17.914Z,24.00
2023-07-25T19:18:46.622Z,24.01
2023-07-25T19:21:14.958Z,24.11
2023-07-25T19:23:45.889Z,24.08
2023-07-25T19:26:15.367Z,23.43
2023-07-25T19:28:43.803Z,22.40
2023-07-25T19:31:15.293Z,22.29
2023-07-25T19:33:45.692Z,22.46
2023-07-25T19:36:18.376Z,22.29
2023-07-25T19:38:58.978Z,22.08
2023-07-25T19:41:28.203Z,22.18
2023-07-25T19:43:58.096Z,21.80
2023-07-25T19:46:26.837Z,22.08
2023-07-25T19:48:56.553Z,22.25
2023-07-25T19:51:25.252Z,22.15
2023-07-25T19:53:53.874Z,22.00
2023-07-25T19:56:53.606Z,21.85
2023-07-25T19:59:47.663Z,21.71
2023-07-25T20:02:16.500Z,21.78
2023-07-25T20:04:50.087Z,21.77
2023-07-25T20:07:32.765Z,21.70
2023-07-25T20:10:08.176Z,21.59
2023-07-25T20:12:40.172Z,21.76
2023-07-25T20:15:11.236Z,21.64
2023-07-25T20:17:41.847Z,21.80
2023-07-25T20:20:12.880Z,21.82
2023-07-25T20:22:42.101Z,21.76
2023-07-25T20:25:13.437Z,21.82
2023-07-25T20:27:42.308Z,21.81
2023-07-25T20:30:13.339Z,21.86
2023-07-25T20:32:41.905Z,21.80
2023-07-25T20:39:06.939Z,21.85
2023-07-25T20:42:03.071Z,22.03
2023-07-25T20:44:34.144Z,21.91
2023-07-25T20:47:03.061Z,21.88
2023-07-25T20:49:31.670Z,22.05
2023-07-25T20:52:08.365Z,21.99
2023-07-25T20:54:39.921Z,21.82
2023-07-25T20:57:09.613Z,21.82
2023-07-25T20:59:37.895Z,22.38
2023-07-25T21:02:06.733Z,22.43
2023-07-25T21:04:35.227Z,22.11
2023-07-25T21:07:15.308Z,22.54
2023-07-25T21:09:49.180Z,22.72
2023-07-25T21:12:17.736Z,22.47
2023-07-25T21:14:46.202Z,22.53
2023-07-25T21:17:22.705Z,22.54
2023-07-25T21:19:53.384Z,22.63
2023-07-25T21:22:28.561Z,22.30
2023-07-25T21:27:58.773Z,21.68
2023-07-25T21:30:30.021Z,21.68
2023-07-25T21:33:03.170Z,21.54
2023-07-25T21:35:32.030Z,21.35
2023-07-25T21:38:18.320Z,21.75
2023-07-25T21:40:47.619Z,21.52
2023-07-25T21:43:16.179Z,21.70
2023-07-25T21:45:44.695Z,21.87
2023-07-25T21:48:14.079Z,21.73
2023-07-25T21:50:42.628Z,21.40
2023-07-25T21:53:14.131Z,21.52
2023-07-25T21:55:46.116Z,21.24
2023-07-25T21:58:14.703Z,21.20
2023-07-25T22:00:46.167Z,21.47
2023-07-25T22:03:13.966Z,21.61
2023-07-25T22:05:44.323Z,22.03
2023-07-25T22:08:14.194Z,21.96
2023-07-25T22:10:42.682Z,21.71
2023-07-25T22:13:11.239Z,21.55
2023-07-25T22:15:42.677Z,21.58
2023-07-25T22:18:14.005Z,21.61
2023-07-25T22:20:51.487Z,21.71
2023-07-25T22:23:27.554Z,21.49
2023-07-25T22:26:01.145Z,21.20
2023-07-25T22:28:29.981Z,21.09
2023-07-25T22:31:02.072Z,20.63
2023-07-25T22:33:30.680Z,21.55
2023-07-25T22:35:59.100Z,21.02
2023-07-25T22:38:35.431Z,21.24
2023-07-25T22:41:06.680Z,21.22
2023-07-25T22:43:35.454Z,20.77
2023-07-25T22:46:04.483Z,21.19
2023-07-25T22:48:33.441Z,20.91
2023-07-25T22:51:02.047Z,21.03
2023-07-25T22:53:35.117Z,21.25
2023-07-25T22:56:05.088Z,21.01
2023-07-25T22:58:33.801Z,21.19
2023-07-25T23:01:02.194Z,21.02
2023-07-25T23:03:30.881Z,21.34
2023-07-25T23:06:03.709Z,21.15
2023-07-25T23:08:34.584Z,20.74
2023-07-25T23:11:03.117Z,20.16
2023-07-25T23:13:33.469Z,20.55
2023-07-25T23:16:01.983Z,20.66
2023-07-25T23:18:30.435Z,20.77
2023-07-25T23:20:58.931Z,20.84
2023-07-25T23:23:27.380Z,20.91
2023-07-25T23:25:57.545Z,21.07
2023-07-25T23:28:27.816Z,20.36
2023-07-25T23:30:56.793Z,20.79
2023-07-25T23:33:25.023Z,20.75
2023-07-25T23:35:55.572Z,20.55
2023-07-25T23:38:24.262Z,21.45
2023-07-25T23:40:52.652Z,21.12
2023-07-25T23:43:22.471Z,20.50
2023-07-25T23:45:53.623Z,20.76
2023-07-25T23:48:23.080Z,20.84
2023-07-25T23:50:51.851Z,20.47
2023-07-25T23:53:19.982Z,20.66
2023-07-25T23:55:48.495Z,21.02
2023-07-25T23:58:16.962Z,21.31
